Estación Meteorológica Peña el Pijo (Robertgarden) [ 07/24/17 22:43:44 CEST ]

Fecha Hora Presion(HPa) Temp (°C) Humedad % Rocio (°C) Viento ( m/s) Direccion Lluvia 1Hora(mm) Lluvia 24H(mm) LLuvia Total(mm)
2017-Jun-20 01:01:57 1015.000 19.4 59 11.2         1427.09
2017-Jun-20 02:01:42 1015.000 17.4 67 11.2         1427.09
2017-Jun-20 03:01:37 1014.900 15.6 73 10.8         1427.09
2017-Jun-20 04:01:35 1014.300 14.9 75 10.5         1427.09
2017-Jun-20 05:01:37 1013.900 14.3 77 10.3         1427.09
2017-Jun-20 06:01:36 1013.900 13.5 78 9.7         1427.09
2017-Jun-20 07:01:33 1014.300 12.7 81 9.5         1427.09
2017-Jun-20 08:01:36 1013.800 14.9 83 12.0         1427.09
2017-Jun-20 09:01:45 1013.800 20.3 69 14.4         1427.09
2017-Jun-20 10:01:50 1013.900 25.9 52 15.3         1427.09
2017-Jun-20 11:01:30 1013.800 31.3 36 14.3         1427.09
2017-Jun-20 12:01:49 1013.500 32.7 31 13.4         1427.09
2017-Jun-20 13:01:47 1013.800 31.9 29 11.6 2.7 SSE     1427.09
2017-Jun-20 14:01:43 1013.500 32.4 29 12.0         1427.09
2017-Jun-20 15:01:56 1012.800 33.2 28 12.1         1427.09
2017-Jun-20 16:02:12 1012.600 28.9 33 10.9         1427.09
2017-Jun-20 17:01:49 1012.000 25.9 59 17.3     0.51 0.51 1427.60
2017-Jun-20 18:01:45 1012.400 29.3 35 12.2 2.5 S   0.51 1427.60
2017-Jun-20 19:02:12 1012.400 28.1 40 13.3       0.51 1427.60
2017-Jun-20 20:01:57 1012.900 26.5 43 12.9       0.51 1427.60
2017-Jun-20 21:01:59 1013.000 23.6 50 12.6       0.51 1427.60
2017-Jun-20 22:01:57 1013.200 20.9 63 13.6       0.51 1427.60
2017-Jun-20 23:01:48 1013.400 20.1 67 13.8       0.51 1427.60

Temperatura Máxima:33°    Temperatura Mínima:12°
Presión Máxima:1015.000 Hpa    Presión Mínima:1012.000 Hpa


Volver